sensor_id;sensor_type;location;lat;lon;timestamp;P1;durP1;ratioP1;P2;durP2;ratioP2
10335;SDS011;5213;53.548;9.930;2023-06-22T00:00:57;5.85;;;5.10;;
10335;SDS011;5213;53.548;9.930;2023-06-22T00:03:23;7.18;;;5.63;;
10335;SDS011;5213;53.548;9.930;2023-06-22T00:05:50;6.82;;;6.00;;
10335;SDS011;5213;53.548;9.930;2023-06-22T00:08:16;7.72;;;5.78;;
10335;SDS011;5213;53.548;9.930;2023-06-22T00:10:42;6.72;;;6.13;;
10335;SDS011;5213;53.548;9.930;2023-06-22T00:13:09;6.28;;;5.68;;
10335;SDS011;5213;53.548;9.930;2023-06-22T00:15:36;6.70;;;6.07;;
10335;SDS011;5213;53.548;9.930;2023-06-22T00:18:04;7.72;;;6.00;;
10335;SDS011;5213;53.548;9.930;2023-06-22T00:20:31;8.32;;;5.85;;
10335;SDS011;5213;53.548;9.930;2023-06-22T00:22:57;7.32;;;6.18;;
10335;SDS011;5213;53.548;9.930;2023-06-22T00:25:24;7.47;;;6.35;;
10335;SDS011;5213;53.548;9.930;2023-06-22T00:27:50;7.00;;;6.30;;
10335;SDS011;5213;53.548;9.930;2023-06-22T00:30:16;6.65;;;6.05;;
10335;SDS011;5213;53.548;9.930;2023-06-22T00:32:42;7.20;;;6.03;;
10335;SDS011;5213;53.548;9.930;2023-06-22T00:35:08;6.68;;;6.07;;
10335;SDS011;5213;53.548;9.930;2023-06-22T00:37:36;8.57;;;7.25;;
10335;SDS011;5213;53.548;9.930;2023-06-22T00:40:03;9.68;;;8.38;;
10335;SDS011;5213;53.548;9.930;2023-06-22T00:42:30;11.18;;;7.90;;
10335;SDS011;5213;53.548;9.930;2023-06-22T00:44:55;9.13;;;8.20;;
10335;SDS011;5213;53.548;9.930;2023-06-22T00:47:21;9.55;;;7.80;;
10335;SDS011;5213;53.548;9.930;2023-06-22T00:49:48;9.68;;;6.93;;
10335;SDS011;5213;53.548;9.930;2023-06-22T00:52:19;8.02;;;7.22;;
10335;SDS011;5213;53.548;9.930;2023-06-22T00:54:50;7.55;;;6.85;;
10335;SDS011;5213;53.548;9.930;2023-06-22T00:57:17;6.88;;;6.18;;
10335;SDS011;5213;53.548;9.930;2023-06-22T00:59:44;7.22;;;6.53;;
10335;SDS011;5213;53.548;9.930;2023-06-22T01:02:11;8.35;;;6.65;;
10335;SDS011;5213;53.548;9.930;2023-06-22T01:04:37;8.13;;;6.70;;
10335;SDS011;5213;53.548;9.930;2023-06-22T01:12:43;6.65;;;5.95;;
10335;SDS011;5213;53.548;9.930;2023-06-22T01:15:16;8.73;;;6.43;;
10335;SDS011;5213;53.548;9.930;2023-06-22T01:17:47;7.03;;;6.30;;
10335;SDS011;5213;53.548;9.930;2023-06-22T01:20:14;9.00;;;6.57;;
10335;SDS011;5213;53.548;9.930;2023-06-22T01:25:36;8.57;;;6.75;;
10335;SDS011;5213;53.548;9.930;2023-06-22T01:30:56;8.15;;;6.85;;
10335;SDS011;5213;53.548;9.930;2023-06-22T01:33:32;7.60;;;6.78;;
10335;SDS011;5213;53.548;9.930;2023-06-22T01:35:59;9.50;;;6.72;;
10335;SDS011;5213;53.548;9.930;2023-06-22T01:38:26;7.55;;;6.85;;
10335;SDS011;5213;53.548;9.930;2023-06-22T01:40:54;8.35;;;6.78;;
10335;SDS011;5213;53.548;9.930;2023-06-22T01:43:21;8.68;;;6.97;;
10335;SDS011;5213;53.548;9.930;2023-06-22T01:45:49;8.05;;;7.25;;
10335;SDS011;5213;53.548;9.930;2023-06-22T01:48:16;8.02;;;6.82;;
10335;SDS011;5213;53.548;9.930;2023-06-22T01:50:42;7.53;;;6.68;;
10335;SDS011;5213;53.548;9.930;2023-06-22T01:53:08;8.05;;;6.65;;
10335;SDS011;5213;53.548;9.930;2023-06-22T01:55:33;9.90;;;6.95;;
10335;SDS011;5213;53.548;9.930;2023-06-22T01:57:59;7.93;;;7.10;;
10335;SDS011;5213;53.548;9.930;2023-06-22T02:00:25;8.43;;;7.13;;
10335;SDS011;5213;53.548;9.930;2023-06-22T02:02:54;7.88;;;7.00;;
10335;SDS011;5213;53.548;9.930;2023-06-22T02:05:25;8.73;;;6.78;;
10335;SDS011;5213;53.548;9.930;2023-06-22T02:07:58;8.77;;;7.22;;
10335;SDS011;5213;53.548;9.930;2023-06-22T02:10:29;7.50;;;6.75;;
10335;SDS011;5213;53.548;9.930;2023-06-22T02:12:57;7.70;;;6.97;;
10335;SDS011;5213;53.548;9.930;2023-06-22T02:15:24;8.23;;;6.82;;
10335;SDS011;5213;53.548;9.930;2023-06-22T02:17:50;8.48;;;7.30;;
10335;SDS011;5213;53.548;9.930;2023-06-22T02:20:16;9.02;;;7.05;;
10335;SDS011;5213;53.548;9.930;2023-06-22T02:22:42;8.55;;;7.15;;
10335;SDS011;5213;53.548;9.930;2023-06-22T02:25:07;9.63;;;7.68;;
10335;SDS011;5213;53.548;9.930;2023-06-22T02:27:33;7.93;;;7.13;;
10335;SDS011;5213;53.548;9.930;2023-06-22T02:29:59;9.57;;;7.63;;
10335;SDS011;5213;53.548;9.930;2023-06-22T02:32:24;10.90;;;7.22;;
10335;SDS011;5213;53.548;9.930;2023-06-22T02:34:50;9.55;;;7.50;;
10335;SDS011;5213;53.548;9.930;2023-06-22T02:37:16;9.23;;;7.70;;
10335;SDS011;5213;53.548;9.930;2023-06-22T02:39:42;8.88;;;7.97;;
10335;SDS011;5213;53.548;9.930;2023-06-22T02:42:08;9.55;;;7.90;;
10335;SDS011;5213;53.548;9.930;2023-06-22T02:44:35;10.05;;;7.90;;
10335;SDS011;5213;53.548;9.930;2023-06-22T02:47:01;8.70;;;7.80;;
10335;SDS011;5213;53.548;9.930;2023-06-22T02:49:27;8.57;;;7.65;;
10335;SDS011;5213;53.548;9.930;2023-06-22T02:51:52;8.93;;;7.88;;
10335;SDS011;5213;53.548;9.930;2023-06-22T02:54:18;9.57;;;8.05;;
10335;SDS011;5213;53.548;9.930;2023-06-22T02:56:44;9.45;;;8.10;;
10335;SDS011;5213;53.548;9.930;2023-06-22T02:59:10;10.90;;;8.05;;
10335;SDS011;5213;53.548;9.930;2023-06-22T03:01:37;9.38;;;8.10;;
10335;SDS011;5213;53.548;9.930;2023-06-22T03:04:05;9.50;;;8.20;;
10335;SDS011;5213;53.548;9.930;2023-06-22T03:06:32;9.13;;;8.23;;
10335;SDS011;5213;53.548;9.930;2023-06-22T03:09:07;10.88;;;8.43;;
10335;SDS011;5213;53.548;9.930;2023-06-22T03:11:33;9.27;;;8.23;;
10335;SDS011;5213;53.548;9.930;2023-06-22T03:14:02;9.88;;;8.85;;
10335;SDS011;5213;53.548;9.930;2023-06-22T03:16:28;12.48;;;8.95;;
10335;SDS011;5213;53.548;9.930;2023-06-22T03:18:54;9.25;;;8.27;;
10335;SDS011;5213;53.548;9.930;2023-06-22T03:21:21;12.45;;;8.93;;
10335;SDS011;5213;53.548;9.930;2023-06-22T03:23:47;10.90;;;8.80;;
10335;SDS011;5213;53.548;9.930;2023-06-22T03:26:17;10.35;;;8.77;;
10335;SDS011;5213;53.548;9.930;2023-06-22T03:28:43;10.73;;;9.00;;
10335;SDS011;5213;53.548;9.930;2023-06-22T03:31:09;12.55;;;8.93;;
10335;SDS011;5213;53.548;9.930;2023-06-22T03:33:34;11.65;;;9.48;;
10335;SDS011;5213;53.548;9.930;2023-06-22T03:36:00;12.27;;;9.40;;
10335;SDS011;5213;53.548;9.930;2023-06-22T03:38:26;12.77;;;9.95;;
10335;SDS011;5213;53.548;9.930;2023-06-22T03:40:51;10.40;;;9.23;;
10335;SDS011;5213;53.548;9.930;2023-06-22T03:43:17;12.90;;;9.68;;
10335;SDS011;5213;53.548;9.930;2023-06-22T03:45:43;12.30;;;9.85;;
10335;SDS011;5213;53.548;9.930;2023-06-22T03:48:10;12.48;;;9.88;;
10335;SDS011;5213;53.548;9.930;2023-06-22T03:50:36;11.80;;;9.43;;
10335;SDS011;5213;53.548;9.930;2023-06-22T03:53:02;10.52;;;8.98;;
10335;SDS011;5213;53.548;9.930;2023-06-22T03:55:28;11.32;;;8.60;;
10335;SDS011;5213;53.548;9.930;2023-06-22T03:57:53;12.75;;;9.40;;
10335;SDS011;5213;53.548;9.930;2023-06-22T04:00:21;12.10;;;9.70;;
10335;SDS011;5213;53.548;9.930;2023-06-22T04:02:48;10.05;;;8.27;;
10335;SDS011;5213;53.548;9.930;2023-06-22T04:05:13;11.18;;;8.20;;
10335;SDS011;5213;53.548;9.930;2023-06-22T04:07:39;11.23;;;8.32;;
10335;SDS011;5213;53.548;9.930;2023-06-22T04:10:05;8.93;;;7.97;;
10335;SDS011;5213;53.548;9.930;2023-06-22T04:12:31;8.90;;;8.00;;
10335;SDS011;5213;53.548;9.930;2023-06-22T04:14:56;10.90;;;8.45;;
10335;SDS011;5213;53.548;9.930;2023-06-22T04:17:22;9.25;;;7.88;;
10335;SDS011;5213;53.548;9.930;2023-06-22T04:19:50;9.50;;;7.95;;
10335;SDS011;5213;53.548;9.930;2023-06-22T04:22:15;8.90;;;8.00;;
10335;SDS011;5213;53.548;9.930;2023-06-22T04:24:41;8.63;;;7.63;;
10335;SDS011;5213;53.548;9.930;2023-06-22T04:27:07;10.25;;;7.82;;
10335;SDS011;5213;53.548;9.930;2023-06-22T04:29:32;10.63;;;7.40;;
10335;SDS011;5213;53.548;9.930;2023-06-22T04:31:58;7.88;;;7.10;;
10335;SDS011;5213;53.548;9.930;2023-06-22T04:34:27;8.50;;;7.70;;
10335;SDS011;5213;53.548;9.930;2023-06-22T04:36:54;9.18;;;7.35;;
10335;SDS011;5213;53.548;9.930;2023-06-22T04:39:19;7.88;;;7.07;;
10335;SDS011;5213;53.548;9.930;2023-06-22T04:41:45;7.32;;;6.63;;
10335;SDS011;5213;53.548;9.930;2023-06-22T04:44:11;7.03;;;6.40;;
10335;SDS011;5213;53.548;9.930;2023-06-22T04:46:38;7.18;;;6.47;;
10335;SDS011;5213;53.548;9.930;2023-06-22T04:49:07;6.90;;;6.30;;
10335;SDS011;5213;53.548;9.930;2023-06-22T04:51:41;7.47;;;6.78;;
10335;SDS011;5213;53.548;9.930;2023-06-22T04:54:07;7.80;;;6.88;;
10335;SDS011;5213;53.548;9.930;2023-06-22T04:56:33;7.80;;;6.70;;
10335;SDS011;5213;53.548;9.930;2023-06-22T04:58:59;9.30;;;7.40;;
10335;SDS011;5213;53.548;9.930;2023-06-22T05:01:26;7.82;;;6.75;;
10335;SDS011;5213;53.548;9.930;2023-06-22T05:03:51;9.25;;;6.60;;
10335;SDS011;5213;53.548;9.930;2023-06-22T05:06:26;7.40;;;6.15;;
10335;SDS011;5213;53.548;9.930;2023-06-22T05:08:55;8.55;;;7.30;;
10335;SDS011;5213;53.548;9.930;2023-06-22T05:11:27;8.63;;;6.57;;
10335;SDS011;5213;53.548;9.930;2023-06-22T05:13:54;7.05;;;6.35;;
10335;SDS011;5213;53.548;9.930;2023-06-22T05:16:22;6.40;;;5.80;;
10335;SDS011;5213;53.548;9.930;2023-06-22T05:18:51;9.55;;;6.28;;
10335;SDS011;5213;53.548;9.930;2023-06-22T05:21:18;6.47;;;5.88;;
10335;SDS011;5213;53.548;9.930;2023-06-22T05:23:46;6.93;;;5.82;;
10335;SDS011;5213;53.548;9.930;2023-06-22T05:26:12;6.50;;;5.95;;
10335;SDS011;5213;53.548;9.930;2023-06-22T05:28:37;6.78;;;5.50;;
10335;SDS011;5213;53.548;9.930;2023-06-22T05:31:03;6.82;;;5.95;;
10335;SDS011;5213;53.548;9.930;2023-06-22T05:33:29;6.10;;;5.50;;
10335;SDS011;5213;53.548;9.930;2023-06-22T05:35:54;5.80;;;5.13;;
10335;SDS011;5213;53.548;9.930;2023-06-22T05:38:20;7.05;;;5.72;;
10335;SDS011;5213;53.548;9.930;2023-06-22T05:40:45;5.95;;;5.07;;
10335;SDS011;5213;53.548;9.930;2023-06-22T05:43:11;5.90;;;4.90;;
10335;SDS011;5213;53.548;9.930;2023-06-22T05:45:36;7.40;;;5.07;;
10335;SDS011;5213;53.548;9.930;2023-06-22T05:48:02;5.03;;;4.53;;
10335;SDS011;5213;53.548;9.930;2023-06-22T05:50:28;4.88;;;4.43;;
10335;SDS011;5213;53.548;9.930;2023-06-22T05:52:53;4.82;;;4.43;;
10335;SDS011;5213;53.548;9.930;2023-06-22T05:55:19;5.07;;;4.63;;
10335;SDS011;5213;53.548;9.930;2023-06-22T05:57:45;5.07;;;4.40;;
10335;SDS011;5213;53.548;9.930;2023-06-22T06:00:10;6.85;;;4.53;;
10335;SDS011;5213;53.548;9.930;2023-06-22T06:02:37;4.93;;;4.38;;
10335;SDS011;5213;53.548;9.930;2023-06-22T06:05:08;5.32;;;4.82;;
10335;SDS011;5213;53.548;9.930;2023-06-22T06:07:35;5.90;;;5.22;;
10335;SDS011;5213;53.548;9.930;2023-06-22T06:10:02;4.78;;;4.38;;
10335;SDS011;5213;53.548;9.930;2023-06-22T06:12:29;5.07;;;4.45;;
10335;SDS011;5213;53.548;9.930;2023-06-22T06:14:55;4.75;;;4.35;;
10335;SDS011;5213;53.548;9.930;2023-06-22T06:17:21;5.90;;;4.57;;
10335;SDS011;5213;53.548;9.930;2023-06-22T06:19:47;4.65;;;4.22;;
10335;SDS011;5213;53.548;9.930;2023-06-22T06:22:12;6.68;;;5.15;;
10335;SDS011;5213;53.548;9.930;2023-06-22T06:24:38;4.97;;;4.40;;
10335;SDS011;5213;53.548;9.930;2023-06-22T06:27:04;5.95;;;4.30;;
10335;SDS011;5213;53.548;9.930;2023-06-22T06:29:30;6.45;;;4.57;;
10335;SDS011;5213;53.548;9.930;2023-06-22T06:31:56;5.82;;;3.95;;
10335;SDS011;5213;53.548;9.930;2023-06-22T06:34:22;4.07;;;3.72;;
10335;SDS011;5213;53.548;9.930;2023-06-22T06:36:47;4.78;;;3.92;;
10335;SDS011;5213;53.548;9.930;2023-06-22T06:39:13;4.38;;;3.95;;
10335;SDS011;5213;53.548;9.930;2023-06-22T06:41:39;7.72;;;4.30;;
10335;SDS011;5213;53.548;9.930;2023-06-22T06:44:04;4.38;;;3.97;;
10335;SDS011;5213;53.548;9.930;2023-06-22T06:46:30;5.13;;;4.10;;
10335;SDS011;5213;53.548;9.930;2023-06-22T06:48:56;4.28;;;3.88;;
10335;SDS011;5213;53.548;9.930;2023-06-22T06:51:21;5.53;;;4.05;;
10335;SDS011;5213;53.548;9.930;2023-06-22T06:53:47;4.95;;;3.58;;
10335;SDS011;5213;53.548;9.930;2023-06-22T06:56:12;4.53;;;4.13;;
10335;SDS011;5213;53.548;9.930;2023-06-22T06:58:40;5.45;;;4.10;;
10335;SDS011;5213;53.548;9.930;2023-06-22T07:01:07;9.60;;;4.30;;
10335;SDS011;5213;53.548;9.930;2023-06-22T07:03:33;4.80;;;4.05;;
10335;SDS011;5213;53.548;9.930;2023-06-22T07:05:59;4.60;;;4.20;;
10335;SDS011;5213;53.548;9.930;2023-06-22T07:08:24;5.75;;;4.07;;
10335;SDS011;5213;53.548;9.930;2023-06-22T07:10:51;5.63;;;3.80;;
10335;SDS011;5213;53.548;9.930;2023-06-22T07:13:17;4.28;;;3.88;;
10335;SDS011;5213;53.548;9.930;2023-06-22T07:15:43;5.38;;;4.32;;
10335;SDS011;5213;53.548;9.930;2023-06-22T07:18:09;4.85;;;3.88;;
10335;SDS011;5213;53.548;9.930;2023-06-22T07:20:34;6.35;;;4.07;;
10335;SDS011;5213;53.548;9.930;2023-06-22T07:23:00;4.05;;;3.70;;
10335;SDS011;5213;53.548;9.930;2023-06-22T07:25:26;6.15;;;3.92;;
10335;SDS011;5213;53.548;9.930;2023-06-22T07:28:01;4.18;;;3.42;;
10335;SDS011;5213;53.548;9.930;2023-06-22T07:30:29;4.32;;;3.80;;
10335;SDS011;5213;53.548;9.930;2023-06-22T07:32:55;4.38;;;3.50;;
10335;SDS011;5213;53.548;9.930;2023-06-22T07:35:21;4.68;;;3.70;;
10335;SDS011;5213;53.548;9.930;2023-06-22T07:37:47;3.88;;;3.45;;
10335;SDS011;5213;53.548;9.930;2023-06-22T07:40:13;4.25;;;3.50;;
10335;SDS011;5213;53.548;9.930;2023-06-22T07:42:39;3.53;;;3.22;;
10335;SDS011;5213;53.548;9.930;2023-06-22T07:45:04;7.53;;;3.85;;
10335;SDS011;5213;53.548;9.930;2023-06-22T07:47:33;4.45;;;3.67;;
10335;SDS011;5213;53.548;9.930;2023-06-22T07:50:00;5.88;;;3.67;;
10335;SDS011;5213;53.548;9.930;2023-06-22T07:52:30;4.03;;;3.03;;
10335;SDS011;5213;53.548;9.930;2023-06-22T07:54:55;5.72;;;3.33;;
10335;SDS011;5213;53.548;9.930;2023-06-22T07:57:21;4.82;;;3.63;;
10335;SDS011;5213;53.548;9.930;2023-06-22T07:59:47;5.10;;;3.65;;
10335;SDS011;5213;53.548;9.930;2023-06-22T08:02:12;4.47;;;3.50;;
10335;SDS011;5213;53.548;9.930;2023-06-22T08:04:38;4.38;;;2.90;;
10335;SDS011;5213;53.548;9.930;2023-06-22T08:07:04;4.47;;;3.10;;
10335;SDS011;5213;53.548;9.930;2023-06-22T08:09:31;3.33;;;2.88;;
10335;SDS011;5213;53.548;9.930;2023-06-22T08:11:58;3.47;;;3.17;;
10335;SDS011;5213;53.548;9.930;2023-06-22T08:14:25;3.58;;;3.10;;
10335;SDS011;5213;53.548;9.930;2023-06-22T08:16:51;5.05;;;3.30;;
10335;SDS011;5213;53.548;9.930;2023-06-22T08:19:17;3.95;;;3.17;;
10335;SDS011;5213;53.548;9.930;2023-06-22T08:21:42;3.95;;;2.90;;
10335;SDS011;5213;53.548;9.930;2023-06-22T08:24:08;3.90;;;3.15;;
10335;SDS011;5213;53.548;9.930;2023-06-22T08:26:34;3.50;;;3.20;;
10335;SDS011;5213;53.548;9.930;2023-06-22T08:29:04;3.17;;;2.83;;
10335;SDS011;5213;53.548;9.930;2023-06-22T08:31:30;2.88;;;2.67;;
10335;SDS011;5213;53.548;9.930;2023-06-22T08:34:00;4.22;;;2.90;;
10335;SDS011;5213;53.548;9.930;2023-06-22T08:36:25;3.28;;;2.35;;
10335;SDS011;5213;53.548;9.930;2023-06-22T08:38:54;3.38;;;2.90;;
10335;SDS011;5213;53.548;9.930;2023-06-22T08:41:22;3.75;;;3.00;;
10335;SDS011;5213;53.548;9.930;2023-06-22T08:43:48;2.97;;;2.47;;
10335;SDS011;5213;53.548;9.930;2023-06-22T08:46:14;5.78;;;3.00;;
10335;SDS011;5213;53.548;9.930;2023-06-22T08:48:39;2.85;;;2.55;;
10335;SDS011;5213;53.548;9.930;2023-06-22T08:51:05;4.45;;;2.97;;
10335;SDS011;5213;53.548;9.930;2023-06-22T08:53:30;3.47;;;2.92;;
10335;SDS011;5213;53.548;9.930;2023-06-22T08:55:56;2.75;;;2.50;;
10335;SDS011;5213;53.548;9.930;2023-06-22T08:58:21;3.05;;;2.72;;
10335;SDS011;5213;53.548;9.930;2023-06-22T09:00:49;3.70;;;3.00;;
10335;SDS011;5213;53.548;9.930;2023-06-22T09:03:16;3.67;;;2.70;;
10335;SDS011;5213;53.548;9.930;2023-06-22T09:05:42;3.78;;;2.72;;
10335;SDS011;5213;53.548;9.930;2023-06-22T09:08:07;2.78;;;2.40;;
10335;SDS011;5213;53.548;9.930;2023-06-22T09:10:33;3.28;;;2.97;;
10335;SDS011;5213;53.548;9.930;2023-06-22T09:12:58;4.35;;;2.97;;
10335;SDS011;5213;53.548;9.930;2023-06-22T09:15:24;5.57;;;3.42;;
10335;SDS011;5213;53.548;9.930;2023-06-22T09:17:50;3.50;;;3.20;;
10335;SDS011;5213;53.548;9.930;2023-06-22T09:20:19;4.47;;;3.33;;
10335;SDS011;5213;53.548;9.930;2023-06-22T09:22:44;4.72;;;3.33;;
10335;SDS011;5213;53.548;9.930;2023-06-22T09:25:10;3.92;;;3.42;;
10335;SDS011;5213;53.548;9.930;2023-06-22T09:27:36;3.58;;;3.25;;
10335;SDS011;5213;53.548;9.930;2023-06-22T09:30:02;3.65;;;3.35;;
10335;SDS011;5213;53.548;9.930;2023-06-22T09:32:28;3.33;;;3.03;;
10335;SDS011;5213;53.548;9.930;2023-06-22T09:34:54;4.68;;;3.30;;
10335;SDS011;5213;53.548;9.930;2023-06-22T09:37:19;3.75;;;3.33;;
10335;SDS011;5213;53.548;9.930;2023-06-22T09:39:45;4.90;;;3.42;;
10335;SDS011;5213;53.548;9.930;2023-06-22T09:42:11;4.70;;;3.30;;
10335;SDS011;5213;53.548;9.930;2023-06-22T09:44:38;3.63;;;3.33;;
10335;SDS011;5213;53.548;9.930;2023-06-22T09:47:04;3.60;;;3.30;;
10335;SDS011;5213;53.548;9.930;2023-06-22T09:49:30;3.55;;;2.90;;
10335;SDS011;5213;53.548;9.930;2023-06-22T09:51:57;3.83;;;2.92;;
10335;SDS011;5213;53.548;9.930;2023-06-22T09:54:22;3.55;;;3.25;;
10335;SDS011;5213;53.548;9.930;2023-06-22T09:56:48;4.57;;;2.83;;
10335;SDS011;5213;53.548;9.930;2023-06-22T09:59:13;3.58;;;3.00;;
10335;SDS011;5213;53.548;9.930;2023-06-22T10:01:39;3.75;;;3.35;;
10335;SDS011;5213;53.548;9.930;2023-06-22T10:04:05;4.05;;;2.90;;
10335;SDS011;5213;53.548;9.930;2023-06-22T10:06:30;4.50;;;3.30;;
10335;SDS011;5213;53.548;9.930;2023-06-22T10:08:56;4.70;;;3.20;;
10335;SDS011;5213;53.548;9.930;2023-06-22T10:11:21;3.38;;;3.10;;
10335;SDS011;5213;53.548;9.930;2023-06-22T10:13:54;3.33;;;2.97;;
10335;SDS011;5213;53.548;9.930;2023-06-22T10:16:19;3.50;;;3.20;;
10335;SDS011;5213;53.548;9.930;2023-06-22T10:18:45;3.80;;;3.33;;
10335;SDS011;5213;53.548;9.930;2023-06-22T10:21:11;4.85;;;3.10;;
10335;SDS011;5213;53.548;9.930;2023-06-22T10:23:36;3.58;;;3.13;;
10335;SDS011;5213;53.548;9.930;2023-06-22T10:26:02;3.20;;;2.90;;
10335;SDS011;5213;53.548;9.930;2023-06-22T10:28:27;4.13;;;3.28;;
10335;SDS011;5213;53.548;9.930;2023-06-22T10:30:53;3.60;;;3.22;;
10335;SDS011;5213;53.548;9.930;2023-06-22T10:33:18;4.00;;;3.35;;
10335;SDS011;5213;53.548;9.930;2023-06-22T10:35:45;4.10;;;3.70;;
10335;SDS011;5213;53.548;9.930;2023-06-22T10:38:11;6.03;;;3.25;;
10335;SDS011;5213;53.548;9.930;2023-06-22T10:40:36;3.60;;;3.30;;
10335;SDS011;5213;53.548;9.930;2023-06-22T10:43:02;3.40;;;3.20;;
10335;SDS011;5213;53.548;9.930;2023-06-22T10:45:27;4.93;;;3.70;;
10335;SDS011;5213;53.548;9.930;2023-06-22T10:47:53;4.10;;;3.28;;
10335;SDS011;5213;53.548;9.930;2023-06-22T10:50:19;5.18;;;3.33;;
10335;SDS011;5213;53.548;9.930;2023-06-22T10:52:45;3.95;;;3.55;;
10335;SDS011;5213;53.548;9.930;2023-06-22T10:55:10;3.80;;;3.50;;
10335;SDS011;5213;53.548;9.930;2023-06-22T10:57:36;4.22;;;3.20;;
10335;SDS011;5213;53.548;9.930;2023-06-22T11:00:04;3.50;;;3.20;;
10335;SDS011;5213;53.548;9.930;2023-06-22T11:02:31;4.25;;;3.22;;
10335;SDS011;5213;53.548;9.930;2023-06-22T11:04:57;5.18;;;3.88;;
10335;SDS011;5213;53.548;9.930;2023-06-22T11:07:25;4.07;;;3.78;;
10335;SDS011;5213;53.548;9.930;2023-06-22T11:09:52;3.90;;;3.53;;
10335;SDS011;5213;53.548;9.930;2023-06-22T11:12:18;6.00;;;4.00;;
10335;SDS011;5213;53.548;9.930;2023-06-22T11:14:43;3.97;;;3.60;;
10335;SDS011;5213;53.548;9.930;2023-06-22T11:17:09;4.43;;;3.63;;
10335;SDS011;5213;53.548;9.930;2023-06-22T11:19:35;4.22;;;3.78;;
10335;SDS011;5213;53.548;9.930;2023-06-22T11:22:01;3.70;;;3.40;;
10335;SDS011;5213;53.548;9.930;2023-06-22T11:24:27;5.32;;;3.90;;
10335;SDS011;5213;53.548;9.930;2023-06-22T11:26:52;4.80;;;4.30;;
10335;SDS011;5213;53.548;9.930;2023-06-22T11:29:18;4.93;;;4.47;;
10335;SDS011;5213;53.548;9.930;2023-06-22T11:31:44;4.68;;;3.75;;
10335;SDS011;5213;53.548;9.930;2023-06-22T11:34:09;3.95;;;3.28;;
10335;SDS011;5213;53.548;9.930;2023-06-22T11:36:35;4.50;;;4.10;;
10335;SDS011;5213;53.548;9.930;2023-06-22T11:39:01;4.53;;;4.10;;
10335;SDS011;5213;53.548;9.930;2023-06-22T11:41:27;4.30;;;3.50;;
10335;SDS011;5213;53.548;9.930;2023-06-22T11:43:52;3.88;;;3.55;;
10335;SDS011;5213;53.548;9.930;2023-06-22T11:46:18;4.25;;;3.85;;
10335;SDS011;5213;53.548;9.930;2023-06-22T11:48:44;4.30;;;4.00;;
10335;SDS011;5213;53.548;9.930;2023-06-22T11:51:10;4.00;;;3.65;;
10335;SDS011;5213;53.548;9.930;2023-06-22T11:53:36;3.25;;;3.05;;
10335;SDS011;5213;53.548;9.930;2023-06-22T11:56:01;3.78;;;3.47;;
10335;SDS011;5213;53.548;9.930;2023-06-22T11:58:27;4.43;;;3.92;;
10335;SDS011;5213;53.548;9.930;2023-06-22T12:00:53;4.00;;;3.60;;
10335;SDS011;5213;53.548;9.930;2023-06-22T12:03:19;4.60;;;3.85;;
10335;SDS011;5213;53.548;9.930;2023-06-22T12:05:46;4.55;;;3.72;;
10335;SDS011;5213;53.548;9.930;2023-06-22T12:08:12;4.20;;;3.90;;
10335;SDS011;5213;53.548;9.930;2023-06-22T12:10:38;4.20;;;3.80;;
10335;SDS011;5213;53.548;9.930;2023-06-22T12:13:04;3.80;;;3.50;;
10335;SDS011;5213;53.548;9.930;2023-06-22T12:15:30;4.20;;;3.90;;
10335;SDS011;5213;53.548;9.930;2023-06-22T12:17:55;6.13;;;4.28;;
10335;SDS011;5213;53.548;9.930;2023-06-22T12:20:21;4.55;;;4.03;;
10335;SDS011;5213;53.548;9.930;2023-06-22T12:22:46;6.68;;;4.20;;
10335;SDS011;5213;53.548;9.930;2023-06-22T12:25:12;4.10;;;3.80;;
10335;SDS011;5213;53.548;9.930;2023-06-22T12:27:38;4.35;;;3.95;;
10335;SDS011;5213;53.548;9.930;2023-06-22T12:30:04;6.78;;;4.35;;
10335;SDS011;5213;53.548;9.930;2023-06-22T12:32:30;4.63;;;4.20;;
10335;SDS011;5213;53.548;9.930;2023-06-22T12:34:55;5.57;;;5.18;;
10335;SDS011;5213;53.548;9.930;2023-06-22T12:37:22;4.78;;;4.38;;
10335;SDS011;5213;53.548;9.930;2023-06-22T12:39:48;4.85;;;4.00;;
10335;SDS011;5213;53.548;9.930;2023-06-22T12:42:14;4.75;;;4.35;;
10335;SDS011;5213;53.548;9.930;2023-06-22T12:44:40;4.75;;;4.43;;
10335;SDS011;5213;53.548;9.930;2023-06-22T12:47:06;7.47;;;5.13;;
10335;SDS011;5213;53.548;9.930;2023-06-22T12:49:33;5.22;;;4.82;;
10335;SDS011;5213;53.548;9.930;2023-06-22T12:52:00;5.15;;;4.78;;
10335;SDS011;5213;53.548;9.930;2023-06-22T12:54:26;6.50;;;4.72;;
10335;SDS011;5213;53.548;9.930;2023-06-22T12:56:53;4.80;;;4.40;;
10335;SDS011;5213;53.548;9.930;2023-06-22T12:59:18;5.10;;;4.32;;
10335;SDS011;5213;53.548;9.930;2023-06-22T13:01:44;4.70;;;4.30;;
10335;SDS011;5213;53.548;9.930;2023-06-22T13:04:11;4.55;;;4.25;;
10335;SDS011;5213;53.548;9.930;2023-06-22T13:06:39;4.60;;;4.20;;
10335;SDS011;5213;53.548;9.930;2023-06-22T13:09:09;4.82;;;4.43;;
10335;SDS011;5213;53.548;9.930;2023-06-22T13:11:35;4.75;;;4.35;;
10335;SDS011;5213;53.548;9.930;2023-06-22T13:14:01;5.03;;;4.53;;
10335;SDS011;5213;53.548;9.930;2023-06-22T13:16:26;4.20;;;3.90;;
10335;SDS011;5213;53.548;9.930;2023-06-22T13:18:52;5.22;;;4.82;;
10335;SDS011;5213;53.548;9.930;2023-06-22T13:21:18;5.10;;;4.60;;
10335;SDS011;5213;53.548;9.930;2023-06-22T13:23:43;5.60;;;5.10;;
10335;SDS011;5213;53.548;9.930;2023-06-22T13:26:09;5.07;;;4.68;;
10335;SDS011;5213;53.548;9.930;2023-06-22T13:28:34;4.60;;;4.30;;
10335;SDS011;5213;53.548;9.930;2023-06-22T13:31:00;4.70;;;4.30;;
10335;SDS011;5213;53.548;9.930;2023-06-22T13:33:26;5.38;;;4.47;;
10335;SDS011;5213;53.548;9.930;2023-06-22T13:35:51;5.13;;;4.63;;
10335;SDS011;5213;53.548;9.930;2023-06-22T13:38:17;5.40;;;4.65;;
10335;SDS011;5213;53.548;9.930;2023-06-22T13:40:43;4.97;;;4.57;;
10335;SDS011;5213;53.548;9.930;2023-06-22T13:43:08;4.95;;;4.50;;
10335;SDS011;5213;53.548;9.930;2023-06-22T13:45:34;5.18;;;4.68;;
10335;SDS011;5213;53.548;9.930;2023-06-22T13:48:00;5.25;;;4.80;;
10335;SDS011;5213;53.548;9.930;2023-06-22T13:50:26;4.97;;;4.57;;
10335;SDS011;5213;53.548;9.930;2023-06-22T13:52:51;5.22;;;4.72;;
10335;SDS011;5213;53.548;9.930;2023-06-22T13:55:17;4.57;;;4.18;;
10335;SDS011;5213;53.548;9.930;2023-06-22T13:57:44;5.25;;;4.75;;
10335;SDS011;5213;53.548;9.930;2023-06-22T14:00:10;5.20;;;4.60;;
10335;SDS011;5213;53.548;9.930;2023-06-22T14:02:37;5.15;;;4.70;;
10335;SDS011;5213;53.548;9.930;2023-06-22T14:05:04;5.15;;;4.65;;
10335;SDS011;5213;53.548;9.930;2023-06-22T14:07:31;5.10;;;4.60;;
10335;SDS011;5213;53.548;9.930;2023-06-22T14:09:56;5.50;;;5.00;;
10335;SDS011;5213;53.548;9.930;2023-06-22T14:12:22;4.82;;;4.30;;
10335;SDS011;5213;53.548;9.930;2023-06-22T14:14:49;5.78;;;4.53;;
10335;SDS011;5213;53.548;9.930;2023-06-22T14:17:15;4.78;;;4.47;;
10335;SDS011;5213;53.548;9.930;2023-06-22T14:19:40;4.70;;;4.20;;
10335;SDS011;5213;53.548;9.930;2023-06-22T14:22:06;4.68;;;4.22;;
10335;SDS011;5213;53.548;9.930;2023-06-22T14:24:32;7.00;;;5.80;;
10335;SDS011;5213;53.548;9.930;2023-06-22T14:26:57;4.85;;;4.50;;
10335;SDS011;5213;53.548;9.930;2023-06-22T14:29:23;7.55;;;6.28;;
10335;SDS011;5213;53.548;9.930;2023-06-22T14:31:50;9.15;;;7.97;;
10335;SDS011;5213;53.548;9.930;2023-06-22T14:34:15;16.92;;;10.63;;
10335;SDS011;5213;53.548;9.930;2023-06-22T14:36:41;6.53;;;5.93;;
10335;SDS011;5213;53.548;9.930;2023-06-22T14:39:07;6.15;;;5.55;;
10335;SDS011;5213;53.548;9.930;2023-06-22T14:41:34;10.60;;;7.65;;
10335;SDS011;5213;53.548;9.930;2023-06-22T14:43:59;5.70;;;5.30;;
10335;SDS011;5213;53.548;9.930;2023-06-22T14:46:25;10.77;;;9.13;;
10335;SDS011;5213;53.548;9.930;2023-06-22T14:48:52;23.58;;;15.43;;
10335;SDS011;5213;53.548;9.930;2023-06-22T14:51:18;32.97;;;21.55;;
10335;SDS011;5213;53.548;9.930;2023-06-22T14:53:44;40.80;;;22.48;;
10335;SDS011;5213;53.548;9.930;2023-06-22T14:56:11;7.40;;;6.55;;
10335;SDS011;5213;53.548;9.930;2023-06-22T14:58:37;11.93;;;8.00;;
10335;SDS011;5213;53.548;9.930;2023-06-22T15:01:05;5.85;;;5.20;;
10335;SDS011;5213;53.548;9.930;2023-06-22T15:03:33;5.13;;;4.72;;
10335;SDS011;5213;53.548;9.930;2023-06-22T15:06:00;7.40;;;6.07;;